Re: KDE 4.7 System Requirements

[Date Prev][Date Next][Thread Prev][Thread Next][Date Index][Thread Index]



Am Samstag, 7. Januar 2012, um 09:35:39 schrieb _:

> Hi Everybody,
> 
> I'm considering installing the KDE 4.7.4 version on my FreeBSD 8.2 system,
> and
> I'd like to ask the community about the system requirements to make it run:
> 
> The base information for my system looks like this:
> 
> Intel P4 1.8 Ghz CPU
> 512 MB of RAM
> Intel Onboard Graphics Chip
> 
> Can anybody on this list give me any pointers as to the performance of KDE
> under
> the above hardware setup? Moreover, how much diskspace will KDE take?

I don't think diskspace would be the problem here ... gutt feeling tells me, 
that ram and graphics won't make using KDE4.7.x much fun.

-- 
Talk to you later ... Hans (244 to go)
 
2012/01/07 15:50
EDDS 071550Z 21011KT 9999 FEW011 BKN020TCU 05/02 Q1016 NOSIG
___________________________________________________
This message is from the kde mailing list.
Account management:  https://mail.kde.org/mailman/listinfo/kde.
Archives: http://lists.kde.org/.
More info: http://www.kde.org/faq.html.


[Fedora Desktop]    [Linux Kernel]     [Red Hat Install]    [GIMP for Windows]    [Gnome]    [Red Hat Development]    [Gaim]     [Gnome Discussion]    [Gimp]    [Yosemite Hiking]

Add to Google Powered by Linux